PADK/ADK METAR and TAF weather

Enter ICAO airport designator
Station Type Date Time Source
PADK METAR 2021/08/05 04:56 UTC NOAA

PADK 050456Z AUTO 25012KT 10SM SCT027 11/08 A2975 RMK AO2 SLPNO T01110078


Station Type Date Time Source
PADK Decoded METAR 2021/08/05 04:56 UTC NOAA

Adak Island, Adak Airport, AK, United States (PADK) 51-52-40N 176-38-45W 4M
Aug 05, 2021 - 12:56 AM EDT / 2021.08.05 0456 UTC
Wind: from the WSW (250 degrees) at 14 MPH (12 KT):0
Visibility: 10 mile(s):0
Sky conditions: partly cloudy
Temperature: 52.0 F (11.1 C)
Dew Point: 46.0 F (7.8 C)
Relative Humidity: 80%
Pressure (altimeter): 29.75 in. Hg (1007 hPa)
ob: PADK 050456Z AUTO 25012KT 10SM SCT027 11/08 A2975 RMK AO2 SLPNO T01110078
cycle: 5

Station Type Date Time Source
PADK TAF 2007/04/07 12:54 UTC NOAA

TAF PADK 070404 33010G15KT 9999 FEW025 BKN030 OVC050 QNH2900INS T03/00Z TM01/18Z COR 1205 LAST NO
AMDS AFT 0712;

Example: see airport list